sensor_id;sensor_type;location;lat;lon;timestamp;pressure;altitude;pressure_sealevel;temperature;humidity
9077;BME280;4574;51.072;17.174;2023-01-30T00:01:24;100216.53;;;0.51;100.00
9077;BME280;4574;51.072;17.174;2023-01-30T00:03:54;100219.28;;;0.48;100.00
9077;BME280;4574;51.072;17.174;2023-01-30T00:06:24;100209.44;;;0.37;100.00
9077;BME280;4574;51.072;17.174;2023-01-30T00:08:53;100200.06;;;0.35;100.00
9077;BME280;4574;51.072;17.174;2023-01-30T00:11:22;100200.72;;;0.38;100.00
9077;BME280;4574;51.072;17.174;2023-01-30T00:13:52;100187.97;;;0.34;100.00
9077;BME280;4574;51.072;17.174;2023-01-30T00:16:21;100173.34;;;0.31;100.00
9077;BME280;4574;51.072;17.174;2023-01-30T00:18:51;100172.50;;;0.31;100.00
9077;BME280;4574;51.072;17.174;2023-01-30T00:21:21;100171.84;;;0.27;100.00
9077;BME280;4574;51.072;17.174;2023-01-30T00:23:50;100162.50;;;0.23;100.00
9077;BME280;4574;51.072;17.174;2023-01-30T00:26:19;100160.75;;;0.24;100.00
9077;BME280;4574;51.072;17.174;2023-01-30T00:28:48;100167.66;;;0.25;100.00
9077;BME280;4574;51.072;17.174;2023-01-30T00:31:17;100164.28;;;0.23;100.00
9077;BME280;4574;51.072;17.174;2023-01-30T00:33:46;100159.25;;;0.20;100.00
9077;BME280;4574;51.072;17.174;2023-01-30T00:36:15;100155.91;;;0.18;100.00
9077;BME280;4574;51.072;17.174;2023-01-30T00:38:45;100154.38;;;0.14;100.00
9077;BME280;4574;51.072;17.174;2023-01-30T00:41:14;100142.38;;;0.11;100.00
9077;BME280;4574;51.072;17.174;2023-01-30T00:43:43;100138.94;;;0.11;100.00
9077;BME280;4574;51.072;17.174;2023-01-30T00:46:42;100125.19;;;0.09;100.00
9077;BME280;4574;51.072;17.174;2023-01-30T00:49:28;100131.31;;;0.08;100.00
9077;BME280;4574;51.072;17.174;2023-01-30T00:51:57;100120.13;;;0.06;100.00
9077;BME280;4574;51.072;17.174;2023-01-30T00:54:28;100095.22;;;0.02;100.00
9077;BME280;4574;51.072;17.174;2023-01-30T00:56:56;100099.66;;;0.00;100.00
9077;BME280;4574;51.072;17.174;2023-01-30T00:59:25;100084.94;;;-0.01;100.00
9077;BME280;4574;51.072;17.174;2023-01-30T01:01:54;100084.53;;;-0.09;100.00
9077;BME280;4574;51.072;17.174;2023-01-30T01:04:23;100092.31;;;-0.09;100.00
9077;BME280;4574;51.072;17.174;2023-01-30T01:06:51;100078.66;;;-0.12;100.00
9077;BME280;4574;51.072;17.174;2023-01-30T01:09:20;100073.38;;;-0.11;100.00
9077;BME280;4574;51.072;17.174;2023-01-30T01:11:51;100066.66;;;-0.15;100.00
9077;BME280;4574;51.072;17.174;2023-01-30T01:14:19;100067.75;;;-0.19;100.00
9077;BME280;4574;51.072;17.174;2023-01-30T01:16:48;100073.88;;;-0.20;100.00
9077;BME280;4574;51.072;17.174;2023-01-30T01:19:17;100057.03;;;-0.28;100.00
9077;BME280;4574;51.072;17.174;2023-01-30T01:21:46;100057.09;;;-0.30;100.00
9077;BME280;4574;51.072;17.174;2023-01-30T01:24:16;100059.69;;;-0.30;100.00
9077;BME280;4574;51.072;17.174;2023-01-30T01:26:45;100060.72;;;-0.32;100.00
9077;BME280;4574;51.072;17.174;2023-01-30T01:29:16;100054.81;;;-0.36;100.00
9077;BME280;4574;51.072;17.174;2023-01-30T01:31:45;100052.97;;;-0.34;100.00
9077;BME280;4574;51.072;17.174;2023-01-30T01:34:14;100041.81;;;-0.36;100.00
9077;BME280;4574;51.072;17.174;2023-01-30T01:36:42;100030.00;;;-0.41;100.00
9077;BME280;4574;51.072;17.174;2023-01-30T01:39:21;100022.28;;;-0.43;100.00
9077;BME280;4574;51.072;17.174;2023-01-30T01:41:50;100015.34;;;-0.42;100.00
9077;BME280;4574;51.072;17.174;2023-01-30T01:44:19;100014.06;;;-0.51;100.00
9077;BME280;4574;51.072;17.174;2023-01-30T01:46:50;100017.41;;;-0.49;100.00
9077;BME280;4574;51.072;17.174;2023-01-30T01:49:23;100014.56;;;-0.44;100.00
9077;BME280;4574;51.072;17.174;2023-01-30T01:51:55;100014.47;;;-0.43;100.00
9077;BME280;4574;51.072;17.174;2023-01-30T01:54:30;100006.78;;;-0.44;100.00
9077;BME280;4574;51.072;17.174;2023-01-30T01:57:03;100002.50;;;-0.45;100.00
9077;BME280;4574;51.072;17.174;2023-01-30T01:59:38;99999.91;;;-0.45;100.00
9077;BME280;4574;51.072;17.174;2023-01-30T02:02:10;99996.44;;;-0.46;100.00
9077;BME280;4574;51.072;17.174;2023-01-30T02:04:43;99997.38;;;-0.47;100.00
9077;BME280;4574;51.072;17.174;2023-01-30T02:07:35;99978.69;;;-0.53;100.00
9077;BME280;4574;51.072;17.174;2023-01-30T02:10:06;99982.69;;;-0.48;100.00
9077;BME280;4574;51.072;17.174;2023-01-30T02:12:37;99967.09;;;-0.48;100.00
9077;BME280;4574;51.072;17.174;2023-01-30T02:15:09;99972.31;;;-0.48;100.00
9077;BME280;4574;51.072;17.174;2023-01-30T02:17:39;99971.31;;;-0.45;100.00
9077;BME280;4574;51.072;17.174;2023-01-30T02:20:17;99969.53;;;-0.45;100.00
9077;BME280;4574;51.072;17.174;2023-01-30T02:23:07;99953.88;;;-0.43;100.00
9077;BME280;4574;51.072;17.174;2023-01-30T02:29:11;99928.69;;;-0.43;100.00
9077;BME280;4574;51.072;17.174;2023-01-30T02:31:54;99927.88;;;-0.43;100.00
9077;BME280;4574;51.072;17.174;2023-01-30T02:34:37;99916.44;;;-0.41;100.00
9077;BME280;4574;51.072;17.174;2023-01-30T02:37:16;99899.19;;;-0.42;100.00
9077;BME280;4574;51.072;17.174;2023-01-30T02:40:03;99894.44;;;-0.49;100.00
9077;BME280;4574;51.072;17.174;2023-01-30T02:42:38;99894.81;;;-0.41;100.00
9077;BME280;4574;51.072;17.174;2023-01-30T02:45:16;99897.50;;;-0.43;100.00
9077;BME280;4574;51.072;17.174;2023-01-30T02:47:55;99877.44;;;-0.41;100.00
9077;BME280;4574;51.072;17.174;2023-01-30T02:50:27;99872.25;;;-0.41;100.00
9077;BME280;4574;51.072;17.174;2023-01-30T02:52:57;99875.53;;;-0.37;100.00
9077;BME280;4574;51.072;17.174;2023-01-30T02:55:27;99867.72;;;-0.37;100.00
9077;BME280;4574;51.072;17.174;2023-01-30T02:57:56;99857.41;;;-0.39;100.00
9077;BME280;4574;51.072;17.174;2023-01-30T03:00:46;99863.94;;;-0.32;100.00
9077;BME280;4574;51.072;17.174;2023-01-30T03:03:33;99844.72;;;-0.29;100.00
9077;BME280;4574;51.072;17.174;2023-01-30T03:06:23;99836.06;;;-0.30;100.00
9077;BME280;4574;51.072;17.174;2023-01-30T03:09:05;99821.97;;;-0.26;100.00
9077;BME280;4574;51.072;17.174;2023-01-30T03:11:42;99814.00;;;-0.23;100.00
9077;BME280;4574;51.072;17.174;2023-01-30T03:14:18;99819.94;;;-0.21;100.00
9077;BME280;4574;51.072;17.174;2023-01-30T03:16:51;99822.81;;;-0.25;100.00
9077;BME280;4574;51.072;17.174;2023-01-30T03:19:23;99814.53;;;-0.32;100.00
9077;BME280;4574;51.072;17.174;2023-01-30T03:21:52;99823.22;;;-0.17;100.00
9077;BME280;4574;51.072;17.174;2023-01-30T03:24:20;99816.53;;;-0.21;100.00
9077;BME280;4574;51.072;17.174;2023-01-30T03:26:56;99814.75;;;-0.21;100.00
9077;BME280;4574;51.072;17.174;2023-01-30T03:29:25;99808.25;;;-0.14;100.00
9077;BME280;4574;51.072;17.174;2023-01-30T03:31:55;99803.78;;;-0.12;100.00
9077;BME280;4574;51.072;17.174;2023-01-30T03:34:25;99790.03;;;-0.14;100.00
9077;BME280;4574;51.072;17.174;2023-01-30T03:36:54;99789.03;;;-0.11;100.00
9077;BME280;4574;51.072;17.174;2023-01-30T03:39:23;99773.44;;;-0.11;100.00
9077;BME280;4574;51.072;17.174;2023-01-30T03:41:51;99760.50;;;-0.13;100.00
9077;BME280;4574;51.072;17.174;2023-01-30T03:44:21;99768.13;;;-0.10;100.00
9077;BME280;4574;51.072;17.174;2023-01-30T03:46:49;99769.16;;;-0.12;100.00
9077;BME280;4574;51.072;17.174;2023-01-30T03:49:18;99771.84;;;-0.14;100.00
9077;BME280;4574;51.072;17.174;2023-01-30T03:51:48;99750.78;;;-0.09;100.00
9077;BME280;4574;51.072;17.174;2023-01-30T03:54:19;99747.31;;;-0.10;100.00
9077;BME280;4574;51.072;17.174;2023-01-30T03:56:48;99749.09;;;-0.10;100.00
9077;BME280;4574;51.072;17.174;2023-01-30T03:59:16;99738.59;;;-0.09;100.00
9077;BME280;4574;51.072;17.174;2023-01-30T04:01:44;99740.44;;;-0.11;100.00
9077;BME280;4574;51.072;17.174;2023-01-30T04:04:13;99739.34;;;-0.07;100.00
9077;BME280;4574;51.072;17.174;2023-01-30T04:06:41;99743.78;;;-0.09;100.00
9077;BME280;4574;51.072;17.174;2023-01-30T04:09:11;99741.00;;;-0.06;100.00
9077;BME280;4574;51.072;17.174;2023-01-30T04:11:40;99755.69;;;-0.05;100.00
9077;BME280;4574;51.072;17.174;2023-01-30T04:14:08;99736.56;;;-0.04;100.00
9077;BME280;4574;51.072;17.174;2023-01-30T04:16:37;99736.56;;;-0.04;100.00
9077;BME280;4574;51.072;17.174;2023-01-30T04:19:05;99719.19;;;-0.03;100.00
9077;BME280;4574;51.072;17.174;2023-01-30T04:21:34;99708.59;;;-0.01;100.00
9077;BME280;4574;51.072;17.174;2023-01-30T04:24:02;99694.59;;;0.02;100.00
9077;BME280;4574;51.072;17.174;2023-01-30T04:26:32;99684.06;;;0.03;100.00
9077;BME280;4574;51.072;17.174;2023-01-30T04:29:01;99648.41;;;0.05;100.00
9077;BME280;4574;51.072;17.174;2023-01-30T04:31:30;99649.88;;;0.09;100.00
9077;BME280;4574;51.072;17.174;2023-01-30T04:33:58;99646.44;;;0.09;100.00
9077;BME280;4574;51.072;17.174;2023-01-30T04:36:26;99635.84;;;0.12;100.00
9077;BME280;4574;51.072;17.174;2023-01-30T04:38:56;99642.06;;;0.09;100.00
9077;BME280;4574;51.072;17.174;2023-01-30T04:41:25;99628.06;;;0.12;100.00
9077;BME280;4574;51.072;17.174;2023-01-30T04:43:54;99621.91;;;0.13;100.00
9077;BME280;4574;51.072;17.174;2023-01-30T04:46:23;99619.31;;;0.13;100.00
9077;BME280;4574;51.072;17.174;2023-01-30T04:48:52;99613.19;;;0.14;100.00
9077;BME280;4574;51.072;17.174;2023-01-30T04:51:20;99613.19;;;0.14;100.00
9077;BME280;4574;51.072;17.174;2023-01-30T04:53:49;99603.41;;;0.17;100.00
9077;BME280;4574;51.072;17.174;2023-01-30T04:56:17;99596.44;;;0.18;100.00
9077;BME280;4574;51.072;17.174;2023-01-30T04:58:45;99592.16;;;0.17;100.00
9077;BME280;4574;51.072;17.174;2023-01-30T05:01:20;99587.59;;;0.20;100.00
9077;BME280;4574;51.072;17.174;2023-01-30T05:03:50;99576.38;;;0.20;100.00
9077;BME280;4574;51.072;17.174;2023-01-30T05:06:18;99574.31;;;0.25;100.00
9077;BME280;4574;51.072;17.174;2023-01-30T05:08:47;99575.78;;;0.29;100.00
9077;BME280;4574;51.072;17.174;2023-01-30T05:11:17;99553.81;;;0.33;100.00
9077;BME280;4574;51.072;17.174;2023-01-30T05:13:46;99564.03;;;0.36;100.00
9077;BME280;4574;51.072;17.174;2023-01-30T05:16:17;99568.09;;;0.40;100.00
9077;BME280;4574;51.072;17.174;2023-01-30T05:18:47;99565.09;;;0.46;100.00
9077;BME280;4574;51.072;17.174;2023-01-30T05:21:16;99562.50;;;0.46;100.00
9077;BME280;4574;51.072;17.174;2023-01-30T05:23:45;99550.22;;;0.48;100.00
9077;BME280;4574;51.072;17.174;2023-01-30T05:26:15;99561.56;;;0.47;100.00
9077;BME280;4574;51.072;17.174;2023-01-30T05:28:43;99551.03;;;0.48;100.00
9077;BME280;4574;51.072;17.174;2023-01-30T05:31:13;99538.13;;;0.47;100.00
9077;BME280;4574;51.072;17.174;2023-01-30T05:33:45;99546.97;;;0.44;100.00
9077;BME280;4574;51.072;17.174;2023-01-30T05:36:15;99533.00;;;0.45;100.00
9077;BME280;4574;51.072;17.174;2023-01-30T05:38:44;99534.69;;;0.46;100.00
9077;BME280;4574;51.072;17.174;2023-01-30T05:41:14;99532.00;;;0.48;100.00
9077;BME280;4574;51.072;17.174;2023-01-30T05:43:43;99522.53;;;0.47;100.00
9077;BME280;4574;51.072;17.174;2023-01-30T05:46:12;99518.34;;;0.44;100.00
9077;BME280;4574;51.072;17.174;2023-01-30T05:48:40;99535.41;;;0.48;100.00
9077;BME280;4574;51.072;17.174;2023-01-30T05:51:16;99508.38;;;0.51;100.00
9077;BME280;4574;51.072;17.174;2023-01-30T05:53:45;99508.03;;;0.43;100.00
9077;BME280;4574;51.072;17.174;2023-01-30T05:56:15;99513.97;;;0.45;100.00
9077;BME280;4574;51.072;17.174;2023-01-30T05:58:49;99521.78;;;0.45;100.00
9077;BME280;4574;51.072;17.174;2023-01-30T06:01:18;99499.19;;;0.45;100.00
9077;BME280;4574;51.072;17.174;2023-01-30T06:03:47;99482.75;;;0.45;100.00
9077;BME280;4574;51.072;17.174;2023-01-30T06:06:17;99492.94;;;0.48;100.00
9077;BME280;4574;51.072;17.174;2023-01-30T06:08:46;99492.09;;;0.47;100.00
9077;BME280;4574;51.072;17.174;2023-01-30T06:11:15;99489.22;;;0.52;100.00
9077;BME280;4574;51.072;17.174;2023-01-30T06:13:44;99481.47;;;0.50;100.00
9077;BME280;4574;51.072;17.174;2023-01-30T06:16:14;99484.31;;;0.60;100.00
9077;BME280;4574;51.072;17.174;2023-01-30T06:18:43;99484.53;;;0.57;100.00
9077;BME280;4574;51.072;17.174;2023-01-30T06:21:14;99471.91;;;0.51;100.00
9077;BME280;4574;51.072;17.174;2023-01-30T06:23:44;99481.72;;;0.60;100.00
9077;BME280;4574;51.072;17.174;2023-01-30T06:26:12;99492.94;;;0.60;100.00
9077;BME280;4574;51.072;17.174;2023-01-30T06:28:41;99475.78;;;0.58;100.00
9077;BME280;4574;51.072;17.174;2023-01-30T06:31:10;99484.00;;;0.64;100.00
9077;BME280;4574;51.072;17.174;2023-01-30T06:33:38;99482.25;;;0.65;100.00
9077;BME280;4574;51.072;17.174;2023-01-30T06:36:07;99479.63;;;0.65;100.00
9077;BME280;4574;51.072;17.174;2023-01-30T06:38:36;99477.75;;;0.67;100.00
9077;BME280;4574;51.072;17.174;2023-01-30T06:41:07;99458.38;;;0.71;100.00
9077;BME280;4574;51.072;17.174;2023-01-30T06:43:36;99445.38;;;0.71;100.00
9077;BME280;4574;51.072;17.174;2023-01-30T06:46:04;99434.75;;;0.74;100.00
9077;BME280;4574;51.072;17.174;2023-01-30T06:48:33;99443.28;;;0.76;100.00
9077;BME280;4574;51.072;17.174;2023-01-30T06:51:01;99433.59;;;0.78;100.00
9077;BME280;4574;51.072;17.174;2023-01-30T06:53:30;99435.47;;;0.76;100.00
9077;BME280;4574;51.072;17.174;2023-01-30T06:56:02;99437.00;;;0.78;100.00
9077;BME280;4574;51.072;17.174;2023-01-30T06:58:32;99429.72;;;0.83;100.00
9077;BME280;4574;51.072;17.174;2023-01-30T07:01:01;99435.69;;;0.85;100.00
9077;BME280;4574;51.072;17.174;2023-01-30T07:03:29;99438.69;;;0.92;100.00
9077;BME280;4574;51.072;17.174;2023-01-30T07:05:58;99437.75;;;0.93;100.00
9077;BME280;4574;51.072;17.174;2023-01-30T07:08:26;99426.50;;;0.92;100.00
9077;BME280;4574;51.072;17.174;2023-01-30T07:10:55;99425.25;;;0.98;100.00
9077;BME280;4574;51.072;17.174;2023-01-30T07:13:24;99410.75;;;0.94;100.00
9077;BME280;4574;51.072;17.174;2023-01-30T07:15:54;99414.81;;;0.98;100.00
9077;BME280;4574;51.072;17.174;2023-01-30T07:18:23;99425.25;;;0.98;100.00
9077;BME280;4574;51.072;17.174;2023-01-30T07:20:52;99416.38;;;1.00;100.00
9077;BME280;4574;51.072;17.174;2023-01-30T07:23:21;99415.34;;;1.03;100.00
9077;BME280;4574;51.072;17.174;2023-01-30T07:25:55;99431.69;;;1.05;100.00
9077;BME280;4574;51.072;17.174;2023-01-30T07:28:27;99429.72;;;1.08;100.00
9077;BME280;4574;51.072;17.174;2023-01-30T07:30:59;99410.84;;;1.05;100.00
9077;BME280;4574;51.072;17.174;2023-01-30T07:33:28;99416.56;;;1.10;100.00
9077;BME280;4574;51.072;17.174;2023-01-30T07:35:57;99417.50;;;1.09;100.00
9077;BME280;4574;51.072;17.174;2023-01-30T07:38:25;99422.50;;;1.12;100.00
9077;BME280;4574;51.072;17.174;2023-01-30T07:40:56;99422.28;;;1.15;100.00
9077;BME280;4574;51.072;17.174;2023-01-30T07:43:25;99410.31;;;1.12;100.00
9077;BME280;4574;51.072;17.174;2023-01-30T07:45:53;99409.25;;;1.15;100.00
9077;BME280;4574;51.072;17.174;2023-01-30T07:48:23;99406.06;;;1.11;100.00
9077;BME280;4574;51.072;17.174;2023-01-30T07:50:54;99404.78;;;1.17;100.00
9077;BME280;4574;51.072;17.174;2023-01-30T07:53:23;99399.47;;;1.06;100.00
9077;BME280;4574;51.072;17.174;2023-01-30T07:55:52;99401.44;;;1.15;100.00
9077;BME280;4574;51.072;17.174;2023-01-30T07:58:20;99409.97;;;1.17;100.00
9077;BME280;4574;51.072;17.174;2023-01-30T08:00:49;99390.06;;;1.16;100.00
9077;BME280;4574;51.072;17.174;2023-01-30T08:03:23;99391.75;;;1.17;100.00
9077;BME280;4574;51.072;17.174;2023-01-30T08:05:52;99416.13;;;1.16;100.00
9077;BME280;4574;51.072;17.174;2023-01-30T08:08:21;99403.31;;;1.13;100.00
9077;BME280;4574;51.072;17.174;2023-01-30T08:10:49;99403.81;;;1.18;100.00
9077;BME280;4574;51.072;17.174;2023-01-30T08:13:18;99382.75;;;1.21;100.00
9077;BME280;4574;51.072;17.174;2023-01-30T08:15:47;99388.91;;;1.20;100.00
9077;BME280;4574;51.072;17.174;2023-01-30T08:18:16;99372.34;;;1.21;100.00
9077;BME280;4574;51.072;17.174;2023-01-30T08:20:49;99379.44;;;1.19;100.00
9077;BME280;4574;51.072;17.174;2023-01-30T08:23:19;99380.78;;;1.24;100.00
9077;BME280;4574;51.072;17.174;2023-01-30T08:25:52;99361.38;;;1.28;100.00
9077;BME280;4574;51.072;17.174;2023-01-30T08:28:23;99352.72;;;1.27;100.00
9077;BME280;4574;51.072;17.174;2023-01-30T08:30:54;99339.97;;;1.35;100.00
9077;BME280;4574;51.072;17.174;2023-01-30T08:33:25;99339.66;;;1.40;100.00
9077;BME280;4574;51.072;17.174;2023-01-30T08:35:56;99329.59;;;1.46;100.00
9077;BME280;4574;51.072;17.174;2023-01-30T08:38:24;99333.84;;;1.47;100.00
9077;BME280;4574;51.072;17.174;2023-01-30T08:40:52;99325.81;;;1.50;100.00
9077;BME280;4574;51.072;17.174;2023-01-30T08:43:23;99324.53;;;1.56;100.00
9077;BME280;4574;51.072;17.174;2023-01-30T08:45:52;99323.47;;;1.58;100.00
9077;BME280;4574;51.072;17.174;2023-01-30T08:48:21;99314.47;;;1.62;100.00
9077;BME280;4574;51.072;17.174;2023-01-30T08:50:51;99310.47;;;1.69;100.00
9077;BME280;4574;51.072;17.174;2023-01-30T08:53:21;99320.72;;;1.72;100.00
9077;BME280;4574;51.072;17.174;2023-01-30T08:55:50;99311.72;;;1.76;100.00
9077;BME280;4574;51.072;17.174;2023-01-30T08:58:18;99299.59;;;1.75;100.00
9077;BME280;4574;51.072;17.174;2023-01-30T09:00:47;99311.25;;;1.82;100.00
9077;BME280;4574;51.072;17.174;2023-01-30T09:03:17;99299.38;;;1.78;100.00
9077;BME280;4574;51.072;17.174;2023-01-30T09:05:45;99306.72;;;1.73;100.00
9077;BME280;4574;51.072;17.174;2023-01-30T09:08:14;99299.00;;;1.72;100.00
9077;BME280;4574;51.072;17.174;2023-01-30T09:10:44;99285.56;;;1.65;100.00
9077;BME280;4574;51.072;17.174;2023-01-30T09:13:12;99305.88;;;1.73;100.00
9077;BME280;4574;51.072;17.174;2023-01-30T09:15:41;99301.59;;;1.72;100.00
9077;BME280;4574;51.072;17.174;2023-01-30T09:18:09;99303.00;;;1.65;100.00
9077;BME280;4574;51.072;17.174;2023-01-30T09:20:38;99300.41;;;1.65;100.00
9077;BME280;4574;51.072;17.174;2023-01-30T09:23:06;99298.19;;;1.71;100.00
9077;BME280;4574;51.072;17.174;2023-01-30T09:25:35;99293.16;;;1.68;100.00
9077;BME280;4574;51.072;17.174;2023-01-30T09:28:05;99300.88;;;1.70;100.00
9077;BME280;4574;51.072;17.174;2023-01-30T09:30:33;99289.59;;;1.69;100.00
9077;BME280;4574;51.072;17.174;2023-01-30T09:33:02;99286.09;;;1.70;100.00
9077;BME280;4574;51.072;17.174;2023-01-30T09:35:31;99282.41;;;1.73;100.00
9077;BME280;4574;51.072;17.174;2023-01-30T09:37:59;99285.00;;;1.73;100.00
9077;BME280;4574;51.072;17.174;2023-01-30T09:40:30;99285.63;;;1.76;100.00
9077;BME280;4574;51.072;17.174;2023-01-30T09:43:20;99288.56;;;1.72;100.00
9077;BME280;4574;51.072;17.174;2023-01-30T09:46:04;99264.28;;;1.71;100.00
9077;BME280;4574;51.072;17.174;2023-01-30T09:48:42;99277.91;;;1.75;100.00
9077;BME280;4574;51.072;17.174;2023-01-30T09:51:33;99259.31;;;1.79;100.00
9077;BME280;4574;51.072;17.174;2023-01-30T09:54:20;99256.69;;;1.79;100.00
9077;BME280;4574;51.072;17.174;2023-01-30T09:56:57;99257.19;;;1.84;100.00
9077;BME280;4574;51.072;17.174;2023-01-30T09:59:33;99254.34;;;1.87;100.00
9077;BME280;4574;51.072;17.174;2023-01-30T10:02:17;99244.84;;;1.86;100.00
9077;BME280;4574;51.072;17.174;2023-01-30T10:04:51;99227.06;;;1.80;100.00
9077;BME280;4574;51.072;17.174;2023-01-30T10:07:36;99241.31;;;1.87;100.00
9077;BME280;4574;51.072;17.174;2023-01-30T10:10:14;99228.00;;;1.79;100.00
9077;BME280;4574;51.072;17.174;2023-01-30T10:12:51;99243.53;;;1.81;100.00
9077;BME280;4574;51.072;17.174;2023-01-30T10:15:30;99237.72;;;1.77;100.00
9077;BME280;4574;51.072;17.174;2023-01-30T10:18:25;99233.69;;;1.73;100.00
9077;BME280;4574;51.072;17.174;2023-01-30T10:21:16;99237.34;;;1.71;100.00
9077;BME280;4574;51.072;17.174;2023-01-30T10:24:02;99242.88;;;1.66;100.00
9077;BME280;4574;51.072;17.174;2023-01-30T10:26:33;99230.56;;;1.68;100.00
9077;BME280;4574;51.072;17.174;2023-01-30T10:29:05;99221.22;;;1.66;100.00
9077;BME280;4574;51.072;17.174;2023-01-30T10:31:43;99215.16;;;1.65;100.00
9077;BME280;4574;51.072;17.174;2023-01-30T10:34:17;99215.84;;;1.67;100.00
9077;BME280;4574;51.072;17.174;2023-01-30T10:36:52;99210.06;;;1.64;100.00
9077;BME280;4574;51.072;17.174;2023-01-30T10:39:28;99215.03;;;1.67;100.00
9077;BME280;4574;51.072;17.174;2023-01-30T10:42:04;99204.72;;;1.65;100.00
9077;BME280;4574;51.072;17.174;2023-01-30T10:44:38;99204.28;;;1.71;100.00
9077;BME280;4574;51.072;17.174;2023-01-30T10:47:24;99209.25;;;1.74;100.00
9077;BME280;4574;51.072;17.174;2023-01-30T10:50:15;99201.78;;;1.70;100.00
9077;BME280;4574;51.072;17.174;2023-01-30T10:52:50;99198.84;;;1.74;100.00
9077;BME280;4574;51.072;17.174;2023-01-30T10:55:28;99186.97;;;1.70;100.00
9077;BME280;4574;51.072;17.174;2023-01-30T10:58:11;99190.06;;;1.75;100.00
9077;BME280;4574;51.072;17.174;2023-01-30T11:00:45;99175.22;;;1.76;100.00
9077;BME280;4574;51.072;17.174;2023-01-30T11:03:24;99180.22;;;1.79;100.00
9077;BME280;4574;51.072;17.174;2023-01-30T11:05:58;99167.78;;;1.82;100.00
9077;BME280;4574;51.072;17.174;2023-01-30T11:08:30;99164.94;;;1.85;100.00
9077;BME280;4574;51.072;17.174;2023-01-30T11:11:00;99154.50;;;1.85;100.00
9077;BME280;4574;51.072;17.174;2023-01-30T11:13:47;99160.66;;;1.95;100.00
9077;BME280;4574;51.072;17.174;2023-01-30T11:16:15;99159.72;;;1.96;100.00
9077;BME280;4574;51.072;17.174;2023-01-30T11:18:47;99157.34;;;2.04;100.00
9077;BME280;4574;51.072;17.174;2023-01-30T11:21:37;99163.97;;;2.08;100.00
9077;BME280;4574;51.072;17.174;2023-01-30T11:24:13;99156.84;;;2.10;100.00
9077;BME280;4574;51.072;17.174;2023-01-30T11:26:43;99150.19;;;2.17;100.00
9077;BME280;4574;51.072;17.174;2023-01-30T11:29:24;99151.63;;;2.21;100.00
9077;BME280;4574;51.072;17.174;2023-01-30T11:31:53;99134.53;;;2.17;100.00
9077;BME280;4574;51.072;17.174;2023-01-30T11:34:23;99141.66;;;2.26;100.00
9077;BME280;4574;51.072;17.174;2023-01-30T11:36:52;99132.63;;;2.30;100.00
9077;BME280;4574;51.072;17.174;2023-01-30T11:39:22;99143.53;;;2.35;100.00
9077;BME280;4574;51.072;17.174;2023-01-30T11:42:01;99133.41;;;2.42;100.00
9077;BME280;4574;51.072;17.174;2023-01-30T11:44:33;99139.47;;;2.42;100.00
9077;BME280;4574;51.072;17.174;2023-01-30T11:47:05;99122.38;;;2.49;100.00
9077;BME280;4574;51.072;17.174;2023-01-30T11:49:40;99123.88;;;2.52;100.00
9077;BME280;4574;51.072;17.174;2023-01-30T11:52:16;99118.19;;;2.58;100.00
9077;BME280;4574;51.072;17.174;2023-01-30T11:54:45;99118.75;;;2.61;100.00
9077;BME280;4574;51.072;17.174;2023-01-30T11:57:18;99109.13;;;2.72;100.00
9077;BME280;4574;51.072;17.174;2023-01-30T11:59:53;99099.38;;;2.74;100.00
9077;BME280;4574;51.072;17.174;2023-01-30T12:02:24;99088.41;;;2.80;100.00
9077;BME280;4574;51.072;17.174;2023-01-30T12:04:57;99096.72;;;2.85;100.00
9077;BME280;4574;51.072;17.174;2023-01-30T12:07:27;99079.69;;;2.91;100.00
9077;BME280;4574;51.072;17.174;2023-01-30T12:09:57;99077.78;;;2.93;100.00
9077;BME280;4574;51.072;17.174;2023-01-30T12:12:31;99081.41;;;3.01;100.00
9077;BME280;4574;51.072;17.174;2023-01-30T12:15:10;99084.16;;;3.00;100.00
9077;BME280;4574;51.072;17.174;2023-01-30T12:17:44;99087.78;;;3.08;100.00
9077;BME280;4574;51.072;17.174;2023-01-30T12:20:22;99079.81;;;3.10;100.00
9077;BME280;4574;51.072;17.174;2023-01-30T12:23:01;99069.34;;;3.10;100.00
9077;BME280;4574;51.072;17.174;2023-01-30T12:25:34;99071.34;;;3.17;100.00
9077;BME280;4574;51.072;17.174;2023-01-30T12:28:12;99076.50;;;3.28;100.00
9077;BME280;4574;51.072;17.174;2023-01-30T12:30:49;99053.78;;;3.29;100.00
9077;BME280;4574;51.072;17.174;2023-01-30T12:33:18;99060.72;;;3.39;100.00
9077;BME280;4574;51.072;17.174;2023-01-30T12:35:58;99060.78;;;3.49;100.00
9077;BME280;4574;51.072;17.174;2023-01-30T12:38:40;99064.66;;;3.54;100.00
9077;BME280;4574;51.072;17.174;2023-01-30T12:41:25;99053.72;;;3.70;100.00
9077;BME280;4574;51.072;17.174;2023-01-30T12:44:20;99065.56;;;3.74;100.00
9077;BME280;4574;51.072;17.174;2023-01-30T12:47:03;99064.06;;;3.81;100.00
9077;BME280;4574;51.072;17.174;2023-01-30T12:49:45;99050.72;;;3.84;100.00
9077;BME280;4574;51.072;17.174;2023-01-30T12:52:32;99058.47;;;3.94;100.00
9077;BME280;4574;51.072;17.174;2023-01-30T12:55:20;99048.53;;;3.98;100.00
9077;BME280;4574;51.072;17.174;2023-01-30T12:57:53;99076.00;;;4.03;100.00
9077;BME280;4574;51.072;17.174;2023-01-30T13:00:33;99057.13;;;4.09;100.00
9077;BME280;4574;51.072;17.174;2023-01-30T13:03:21;99057.69;;;4.13;100.00
9077;BME280;4574;51.072;17.174;2023-01-30T13:05:56;99068.84;;;4.15;100.00
9077;BME280;4574;51.072;17.174;2023-01-30T13:08:46;99064.44;;;4.15;100.00
9077;BME280;4574;51.072;17.174;2023-01-30T13:11:35;99073.00;;;4.17;100.00
9077;BME280;4574;51.072;17.174;2023-01-30T13:14:15;99074.66;;;4.18;100.00
9077;BME280;4574;51.072;17.174;2023-01-30T13:17:01;99067.78;;;4.27;100.00
9077;BME280;4574;51.072;17.174;2023-01-30T13:19:39;99062.41;;;4.28;100.00
9077;BME280;4574;51.072;17.174;2023-01-30T13:22:14;99067.66;;;4.28;100.00
9077;BME280;4574;51.072;17.174;2023-01-30T13:24:58;99080.47;;;4.31;100.00
9077;BME280;4574;51.072;17.174;2023-01-30T13:27:33;99067.78;;;4.36;100.00
9077;BME280;4574;51.072;17.174;2023-01-30T13:30:05;99059.38;;;4.42;100.00
9077;BME280;4574;51.072;17.174;2023-01-30T13:32:38;99055.53;;;4.46;100.00
9077;BME280;4574;51.072;17.174;2023-01-30T13:35:15;99056.06;;;4.40;100.00
9077;BME280;4574;51.072;17.174;2023-01-30T13:37:46;99063.25;;;4.38;100.00
9077;BME280;4574;51.072;17.174;2023-01-30T13:40:18;99065.59;;;4.32;100.00